Sarah Desgagnes — XJAB — position and weather

sailwx.info

Track history (hours):
 
Tides and Currents Weather Stations Pressure Air Temp Water Temp Dewpoint Dewpoint Depression Visibility Wind Speed Wind Dir Waves Ship Positions

Sarah Desgagnes

Last reported at 2016-Sep-30 18:00 UTC. Time now 2016-Sep-30 18:38 UTC.
Position N 71°54' W 080°54'.

Length 147 m; draft 6.8 m.

Type: Ship. MMSI: 316012308.

Wind from 040 at 15 knots

Barometer 1012.8 mb
Air temperature 0.6 ° C
Dewpoint -0.3 ° C

Date/timePositionNaut miles runAvg speedWind from/ knotsBaromVisibWave heightAir tempDewpointWater temp
2016-Sep-30 18:00N 71°54' W 080°54'0 0.0 040 / 151012.8 0.6-0.3
2016-Sep-30 17:00N 71°54' W 080°54'0 0.0 040 / 161012.6 0.4-0.6
2016-Sep-30 16:00N 71°54' W 080°54'0 0.0 050 / 191012.2 0.3-0.8
2016-Sep-30 15:00N 71°54' W 080°54'0 0.0 040 / 161012.0 0.6-1.3
2016-Sep-30 14:00N 71°54' W 080°54'0 0.0 050 / 131011.4 0.7-1.2
2016-Sep-30 13:00N 71°54' W 080°54'0 0.0 040 / 101010.9 0.1-1.5
2016-Sep-30 09:00N 71°54' W 080°54'0 0.0 030 / 91008.3 0.3-1.1
2016-Sep-30 08:00N 71°54' W 080°54'0 0.0 050 / 181007.3 0.5-0.7
2016-Sep-30 05:00N 71°54' W 080°54'0 0.0 050 / 251005.3 0.3-1.6
2016-Sep-30 04:00N 71°54' W 080°54'0 0.0 030 / 171005.1 0.7-1.7
2016-Sep-30 02:00N 71°54' W 080°54'0 0.0 050 / 241003.8 0.5-0.9
2016-Sep-30 01:00N 71°54' W 080°54'0 0.0 040 / 231003.6 0.3-1.7
2016-Sep-29 23:00N 71°54' W 080°54'0 0.0 040 / 191002.9 0.6-3.1
2016-Sep-29 21:00N 71°54' W 080°54'0 0.0 020 / 201002.1 0.7-2.8
2016-Sep-29 20:00N 71°54' W 080°54'0 0.0 020 / 171002.5 1.4-4.3
2016-Sep-29 19:00N 71°54' W 080°54'0 0.0 020 / 151002.1 0.6-2.1
2016-Sep-29 17:00N 71°54' W 080°54'0 0.0 030 / 181002.6 0.2-2.1
2016-Sep-29 16:00N 71°54' W 080°54'0 0.0 040 / 151003.1 0.8-3.6
2016-Sep-29 15:00N 71°54' W 080°54'0 0.0 040 / 181003.5 -0.3-1.6
2016-Sep-29 13:00N 71°54' W 080°54'0 0.0 040 / 141004.8 0.1-1.8
2016-Sep-29 12:00N 71°54' W 080°54'0 0.0 350 / 21005.6 -0.8-2.2
2016-Sep-29 10:00N 71°54' W 080°54'0 0.0 100 / 91006.7 -0.7-2.3
2016-Sep-29 09:00N 71°54' W 080°54'0 0.0 230 / 51007.1 -3.8-3.9
2016-Sep-29 08:00N 71°54' W 080°54'0 0.0 230 / 31008.1 -6.1-6.2
2016-Sep-29 03:00N 71°54' W 080°54'0 0.0 250 / 21011.7 -5.2-5.3
2016-Sep-29 01:00N 71°54' W 080°54'0 0.0 210 / 51012.8 -5.1-5.3
2016-Sep-28 21:00N 71°54' W 080°54'0 0.0 240 / 51013.9 -2.0-2.5
2016-Sep-28 20:00N 71°54' W 080°54'0 0.0 290 / 31014.0 -2.3-2.5
2016-Sep-28 18:00N 71°54' W 080°54'0 0.0 130 / 11014.7 -2.0-2.5
2016-Sep-28 16:00N 71°54' W 080°54'0 0.0 220 / 51015.7 -3.7-3.8
2016-Sep-28 15:00N 71°54' W 080°54'0 0.0 230 / 21015.8 -2.1-2.4
2016-Sep-28 14:00N 71°54' W 080°54'0 0.0 210 / 41015.9 -2.6-2.8
2016-Sep-28 13:00N 71°54' W 080°54'0 0.0 1016.1 -1.7-1.9
2016-Sep-28 12:00N 71°54' W 080°54'0 0.0 220 / 21015.4 -4.4-4.4
2016-Sep-28 10:00N 71°54' W 080°54'0 0.0 230 / 21015.7 -3.0-3.0
2016-Sep-28 07:00N 71°54' W 080°54'0 0.0 230 / 21013.4 -2.4-2.4
2016-Sep-28 03:00N 71°54' W 080°54'0 0.0 230 / 41010.8 -0.6-0.6
2016-Sep-28 02:00N 71°54' W 080°54'0 0.0 1010.4 -0.1-0.0
2016-Sep-28 01:00N 71°54' W 080°54'0 0.0 1009.6 -0.4-0.3
2016-Sep-28 00:00N 71°54' W 080°54'0 0.0 230 / 31008.9 -0.7-0.6
2016-Sep-27 21:00N 71°54' W 080°54'0 0.0 140 / 31006.8 1.2 1.2
2016-Sep-27 18:00N 71°54' W 080°54'0 0.0 150 / 121005.4 0.5 0.6
2016-Sep-27 17:00N 71°54' W 080°54'0 0.0 160 / 151005.2 0.6 0.6
2016-Sep-27 14:00N 71°54' W 080°54'2 0.9 150 / 191005.3 0.5 0.5 3.5
2016-Sep-27 12:00N 71°54' W 080°48'7 7.1 160 / 281004.8 1.2 1.1 3.1
2016-Sep-27 11:00N 72°00' W 080°36'18 9.2 080 / 21006.1 2.4 2.4 3.3
2016-Sep-27 09:00N 72°18' W 080°24'19 9.4 250 / 101006.6 1.1 1.2 3.4
2016-Sep-27 07:00N 72°36' W 080°06'1110.8 210 / 91007.1 1.9 2.0 3.5
2016-Sep-27 06:00N 72°42' W 079°36'1110.7 270 / 71007.8 2.2 2.2 3.5
2016-Sep-27 05:00N 72°42' W 079°00'9 8.9 340 / 91007.9 2.4 2.5 3.6
2016-Sep-27 04:00N 72°42' W 078°30'1212.2 260 / 61008.0 2.4 2.5 4.0
2016-Sep-27 03:00N 72°48' W 077°54'9 8.9 230 / 81008.3 2.8 2.8 3.6
2016-Sep-27 02:00N 72°48' W 077°24'9 8.9 280 / 161008.3 2.4 2.5 3.6
2016-Sep-27 01:00N 72°48' W 076°54'2211.1 300 / 221006.9 2.7 2.8 3.6
2016-Sep-26 23:00N 72°42' W 075°42'1110.7 260 / 111008.0 3.2 3.2 2.5
2016-Sep-26 22:00N 72°42' W 075°06'3210.7 250 / 171007.5 3.7 3.7 2.9
2016-Sep-26 19:00N 72°42' W 073°18'1110.8 160 / 51009.3 2.1 2.1 3.5
2016-Sep-26 18:00N 72°36' W 072°48'2713.4 180 / 71009.5 1.7 1.7 3.5
2016-Sep-26 16:00N 72°18' W 071°42'2713.5 150 / 131010.1 1.7 1.7 3.0
2016-Sep-26 14:00N 72°00' W 070°36'2713.7 150 / 161010.9 2.2 2.2 3.8
2016-Sep-26 12:00N 71°42' W 069°30'1312.8 150 / 171011.8 1.7 1.7 4.1
2016-Sep-26 11:00N 71°36' W 068°54'1716.6 160 / 201012.5 2.0 2.0 3.0
2016-Sep-26 10:00N 71°24' W 068°18'10 9.7 160 / 171013.6 2.1 2.1 4.7
2016-Sep-26 09:00N 71°18' W 067°54'18 9.0 160 / 191013.6 2.0 2.0 4.5
2016-Sep-26 07:00N 71°06' W 067°12'8 8.4 160 / 161014.5 1.9 1.9 4.3
2016-Sep-26 06:00N 71°00' W 066°54'8 8.4 170 / 141014.6 2.1 2.0 5.2
2016-Sep-26 05:00N 70°54' W 066°36'8 8.4 170 / 151015.0 2.1 1.6 5.5
2016-Sep-26 04:00N 70°48' W 066°18'13 6.6 170 / 91015.3 2.2 1.8 5.4
2016-Sep-26 02:00N 70°42' W 065°42'3411.3 170 / 71015.9 2.5 0.5 5.5
2016-Sep-25 23:00N 70°18' W 064°30'1615.7 100 / 91015.4 2.8 0.3 5.2
2016-Sep-25 22:00N 70°06' W 064°00'4414.6 070 / 91015.3 2.8 0.1 5.3
2016-Sep-25 19:00N 69°30' W 062°48'1413.6 020 / 151012.9 2.4 1.5 5.6
2016-Sep-25 18:00N 69°18' W 062°30'8113.5 030 / 151012.2 2.4 1.2 5.0
2016-Sep-25 12:00N 68°06' W 060°48'6613.2 300 / 101012.3 2.9 2.8 4.4
2016-Sep-25 07:00N 67°06' W 059°36'1312.9 330 / 131015.6 1.5 1.3 4.7
2016-Sep-25 06:00N 66°54' W 059°24'8 7.6 340 / 141016.0 1.2 1.2 4.7
2016-Sep-25 05:00N 66°48' W 059°12'19 9.7 330 / 181016.4 1.3 1.3 4.5
2016-Sep-25 03:00N 66°30' W 058°54'24 8.0 350 / 181016.9 1.1 1.1 4.3
2016-Sep-25 00:00N 66°06' W 058°48'1212.0 340 / 211017.3 1.6 1.6 4.0
2016-Sep-24 23:00N 65°54' W 058°48'1818.0 350 / 231017.2 1.6 1.6 4.2
2016-Sep-24 22:00N 65°36' W 058°48'1313.0 360 / 231017.2 1.6 1.6 3.8
2016-Sep-24 21:00N 65°24' W 058°36'1212.3 010 / 231017.0 2.1 2.1 4.4
2016-Sep-24 20:00N 65°12' W 058°30'1818.0 010 / 211016.5 2.3 2.2 5.5
2016-Sep-24 19:00N 64°54' W 058°30'7 6.5 020 / 251015.9 2.7 2.5 6.2
2016-Sep-24 18:00N 64°48' W 058°24'3015.2 020 / 241015.1 3.4 3.1 6.5
2016-Sep-24 16:00N 64°18' W 058°12'1212.0 030 / 231014.5 4.2 4.2 6.5
2016-Sep-24 15:00N 64°06' W 058°12'5513.6 030 / 221013.9 4.5 4.4 6.5
2016-Sep-24 11:00N 63°12' W 057°54'1818.2 040 / 181012.0 4.0 4.0 7.7
2016-Sep-24 10:00N 62°54' W 057°48'1212.3 030 / 161011.5 4.1 4.2 8.0
2016-Sep-24 09:00N 62°42' W 057°42'1212.0 040 / 161011.2 4.4 4.4 7.7
2016-Sep-24 08:00N 62°30' W 057°42'18 9.1 040 / 161010.9 4.9 4.8 7.8
2016-Sep-24 06:00N 62°12' W 057°36'1212.3 030 / 131010.5 4.8 4.9 8.0
2016-Sep-24 05:00N 62°00' W 057°30'6 6.0 030 / 111010.5 4.9 5.0 8.0
2016-Sep-24 04:00N 61°54' W 057°30'2412.1 040 / 91010.3 5.2 5.4 8.1
2016-Sep-24 02:00N 61°30' W 057°24'1212.3 050 / 81010.0 6.1 6.2 8.3
2016-Sep-24 01:00N 61°18' W 057°18'1212.0 050 / 91009.9 5.8 5.9 8.6
2016-Sep-24 00:00N 61°06' W 057°18'7314.6 030 / 81009.9 5.9 6.1 8.6
2016-Sep-23 19:00N 59°54' W 056°54'3015.1 080 / 91009.9 4.8 5.0 8.1
2016-Sep-23 17:00N 59°24' W 056°48'6713.3 180 / 51009.8 6.8 6.9 8.3
2016-Sep-23 12:00N 58°18' W 056°30'6713.3 230 / 131010.7 6.3 6.4 7.8
2016-Sep-23 07:00N 57°12' W 056°12'1212.0 240 / 91011.2 6.9 7.0 8.8
2016-Sep-23 06:00N 57°00' W 056°12'7 6.8 230 / 121011.3 6.8 6.9 8.7
2016-Sep-23 05:00N 56°54' W 056°06'2412.0 230 / 121011.5 6.8 6.8 8.6
2016-Sep-23 03:00N 56°30' W 056°06'7 6.9 220 / 81011.8 6.7 6.7 8.5
2016-Sep-23 02:00N 56°24' W 056°00'1818.3 170 / 41012.0 6.9 6.9 8.9
2016-Sep-23 01:00N 56°06' W 055°54'1212.0 090 / 41012.0 7.1 6.8 8.4
2016-Sep-23 00:00N 55°54' W 055°54'3015.1 090 / 81012.1 7.3 6.0 9.1
2016-Sep-22 22:00N 55°24' W 055°48'1212.5 300 / 21011.4 5.9 6.0 5.8
2016-Sep-22 21:00N 55°12' W 055°42'1212.0 080 / 71010.7 5.3 5.5 5.4
2016-Sep-22 20:00N 55°00' W 055°42'1212.5 070 / 101009.8 5.2 5.3 5.1
2016-Sep-22 19:00N 54°48' W 055°36'1818.0 050 / 121008.7 4.9 5.0 4.8
2016-Sep-22 18:00N 54°30' W 055°36'1212.5 050 / 111008.2 4.9 5.0 4.8
2016-Sep-22 17:00N 54°18' W 055°30'1212.0 050 / 131007.2 4.5 4.6 4.7
2016-Sep-22 16:00N 54°06' W 055°30'3015.1 060 / 121006.4 4.5 4.6 5.0
2016-Sep-22 14:00N 53°36' W 055°24'4214.1 070 / 161004.5 4.8 4.9 5.1
2016-Sep-22 11:00N 52°54' W 055°18'6 6.0 070 / 111001.6 6.0 6.1 7.4
2016-Sep-22 10:00N 52°48' W 055°18'1212.0 350 / 61001.1 8.2 8.4 5.9
2016-Sep-22 09:00N 52°36' W 055°18'3010.1 300 / 101000.8 9.3 9.4 8.0
2016-Sep-22 06:00N 52°06' W 055°24'1414.1 250 / 61000.6 10.110.2 8.2
2016-Sep-22 05:00N 51°54' W 055°36'1312.6 270 / 71000.7 9.5 9.6 8.0
2016-Sep-22 04:00N 51°48' W 055°54'1616.4 250 / 111001.0 7.9 8.0 8.0
2016-Sep-22 03:00N 51°36' W 056°12'5714.3 240 / 121001.5 8.8 8.9 8.0
2016-Sep-21 23:00N 51°06' W 057°30'1414.2 240 / 151003.7 11.711.913.4
2016-Sep-21 22:00N 50°54' W 057°42'2613.1 240 / 181004.0 11.211.312.7
2016-Sep-21 20:00N 50°36' W 058°12'1716.6 240 / 211004.7 10.510.712.3
2016-Sep-21 19:00N 50°24' W 058°30'2814.2 240 / 211005.1 10.610.812.3
2016-Sep-21 17:00N 50°00' W 058°54'2813.8 260 / 191006.2 10.110.211.4
2016-Sep-21 15:00N 49°54' W 059°36'3115.5 260 / 191006.9 11.411.511.2
2016-Sep-21 13:00N 49°54' W 060°24'1211.6 270 / 211007.1 11.611.711.0
2016-Sep-21 12:00N 49°54' W 060°42'1515.5 250 / 201007.2 12.212.310.5
2016-Sep-21 11:00N 49°54' W 061°06'1211.6 240 / 211007.4 12.212.210.6
2016-Sep-21 10:00N 49°54' W 061°24'1515.5 230 / 161007.3 12.012.111.7
2016-Sep-21 09:00N 49°54' W 061°48'1211.6 220 / 121007.6 11.812.012.1
2016-Sep-21 08:00N 49°54' W 062°06'4314.2 270 / 121008.0 11.711.811.7
2016-Sep-21 05:00N 49°54' W 063°12'1515.5 260 / 181008.7 13.013.112.2
2016-Sep-21 04:00N 49°54' W 063°36'4314.2 230 / 131008.7 11.812.011.1
2016-Sep-21 01:00N 49°54' W 064°42'3014.8 230 / 31010.9 11.912.010.8
2016-Sep-20 23:00N 49°42' W 065°24'4615.5 280 / 91010.7 11.311.411.0
2016-Sep-20 20:00N 49°24' W 066°30'   320 / 41011.5 10.510.711.4
Track history (hours):
 
Tides and Currents Weather Stations Pressure Air Temp Water Temp Dewpoint Dewpoint Depression Visibility Wind Speed Wind Dir Waves Ship Positions

Sarah Desgagnes

Last reported at 2016-Sep-30 18:00 UTC. Time now 2016-Sep-30 18:38 UTC.
Position N 71°54' W 080°54'.

Length 147 m; draft 6.8 m.

Type: Ship. MMSI: 316012308.

Wind from 040 at 15 knots

Barometer 1012.8 mb
Air temperature 0.6 ° C
Dewpoint -0.3 ° C

Date/timePositionNaut miles runAvg speedWind from/ knotsBaromVisibWave heightAir tempDewpointWater temp
2016-Sep-30 18:00N 71°54' W 080°54'0 0.0 040 / 151012.8 0.6-0.3
2016-Sep-30 17:00N 71°54' W 080°54'0 0.0 040 / 161012.6 0.4-0.6
2016-Sep-30 16:00N 71°54' W 080°54'0 0.0 050 / 191012.2 0.3-0.8
2016-Sep-30 15:00N 71°54' W 080°54'0 0.0 040 / 161012.0 0.6-1.3
2016-Sep-30 14:00N 71°54' W 080°54'0 0.0 050 / 131011.4 0.7-1.2
2016-Sep-30 13:00N 71°54' W 080°54'0 0.0 040 / 101010.9 0.1-1.5
2016-Sep-30 09:00N 71°54' W 080°54'0 0.0 030 / 91008.3 0.3-1.1
2016-Sep-30 08:00N 71°54' W 080°54'0 0.0 050 / 181007.3 0.5-0.7
2016-Sep-30 05:00N 71°54' W 080°54'0 0.0 050 / 251005.3 0.3-1.6
2016-Sep-30 04:00N 71°54' W 080°54'0 0.0 030 / 171005.1 0.7-1.7
2016-Sep-30 02:00N 71°54' W 080°54'0 0.0 050 / 241003.8 0.5-0.9
2016-Sep-30 01:00N 71°54' W 080°54'0 0.0 040 / 231003.6 0.3-1.7
2016-Sep-29 23:00N 71°54' W 080°54'0 0.0 040 / 191002.9 0.6-3.1
2016-Sep-29 21:00N 71°54' W 080°54'0 0.0 020 / 201002.1 0.7-2.8
2016-Sep-29 20:00N 71°54' W 080°54'0 0.0 020 / 171002.5 1.4-4.3
2016-Sep-29 19:00N 71°54' W 080°54'0 0.0 020 / 151002.1 0.6-2.1
2016-Sep-29 17:00N 71°54' W 080°54'0 0.0 030 / 181002.6 0.2-2.1
2016-Sep-29 16:00N 71°54' W 080°54'0 0.0 040 / 151003.1 0.8-3.6
2016-Sep-29 15:00N 71°54' W 080°54'0 0.0 040 / 181003.5 -0.3-1.6
2016-Sep-29 13:00N 71°54' W 080°54'0 0.0 040 / 141004.8 0.1-1.8
2016-Sep-29 12:00N 71°54' W 080°54'0 0.0 350 / 21005.6 -0.8-2.2
2016-Sep-29 10:00N 71°54' W 080°54'0 0.0 100 / 91006.7 -0.7-2.3
2016-Sep-29 09:00N 71°54' W 080°54'0 0.0 230 / 51007.1 -3.8-3.9
2016-Sep-29 08:00N 71°54' W 080°54'0 0.0 230 / 31008.1 -6.1-6.2
2016-Sep-29 03:00N 71°54' W 080°54'0 0.0 250 / 21011.7 -5.2-5.3
2016-Sep-29 01:00N 71°54' W 080°54'0 0.0 210 / 51012.8 -5.1-5.3
2016-Sep-28 21:00N 71°54' W 080°54'0 0.0 240 / 51013.9 -2.0-2.5
2016-Sep-28 20:00N 71°54' W 080°54'0 0.0 290 / 31014.0 -2.3-2.5
2016-Sep-28 18:00N 71°54' W 080°54'0 0.0 130 / 11014.7 -2.0-2.5
2016-Sep-28 16:00N 71°54' W 080°54'0 0.0 220 / 51015.7 -3.7-3.8
2016-Sep-28 15:00N 71°54' W 080°54'0 0.0 230 / 21015.8 -2.1-2.4
2016-Sep-28 14:00N 71°54' W 080°54'0 0.0 210 / 41015.9 -2.6-2.8
2016-Sep-28 13:00N 71°54' W 080°54'0 0.0 1016.1 -1.7-1.9
2016-Sep-28 12:00N 71°54' W 080°54'0 0.0 220 / 21015.4 -4.4-4.4
2016-Sep-28 10:00N 71°54' W 080°54'0 0.0 230 / 21015.7 -3.0-3.0
2016-Sep-28 07:00N 71°54' W 080°54'0 0.0 230 / 21013.4 -2.4-2.4
2016-Sep-28 03:00N 71°54' W 080°54'0 0.0 230 / 41010.8 -0.6-0.6
2016-Sep-28 02:00N 71°54' W 080°54'0 0.0 1010.4 -0.1-0.0
2016-Sep-28 01:00N 71°54' W 080°54'0 0.0 1009.6 -0.4-0.3
2016-Sep-28 00:00N 71°54' W 080°54'0 0.0 230 / 31008.9 -0.7-0.6
2016-Sep-27 21:00N 71°54' W 080°54'0 0.0 140 / 31006.8 1.2 1.2
2016-Sep-27 18:00N 71°54' W 080°54'0 0.0 150 / 121005.4 0.5 0.6
2016-Sep-27 17:00N 71°54' W 080°54'0 0.0 160 / 151005.2 0.6 0.6
2016-Sep-27 14:00N 71°54' W 080°54'2 0.9 150 / 191005.3 0.5 0.5 3.5
2016-Sep-27 12:00N 71°54' W 080°48'7 7.1 160 / 281004.8 1.2 1.1 3.1
2016-Sep-27 11:00N 72°00' W 080°36'18 9.2 080 / 21006.1 2.4 2.4 3.3
2016-Sep-27 09:00N 72°18' W 080°24'19 9.4 250 / 101006.6 1.1 1.2 3.4
2016-Sep-27 07:00N 72°36' W 080°06'1110.8 210 / 91007.1 1.9 2.0 3.5
2016-Sep-27 06:00N 72°42' W 079°36'1110.7 270 / 71007.8 2.2 2.2 3.5
2016-Sep-27 05:00N 72°42' W 079°00'9 8.9 340 / 91007.9 2.4 2.5 3.6
2016-Sep-27 04:00N 72°42' W 078°30'1212.2 260 / 61008.0 2.4 2.5 4.0
2016-Sep-27 03:00N 72°48' W 077°54'9 8.9 230 / 81008.3 2.8 2.8 3.6
2016-Sep-27 02:00N 72°48' W 077°24'9 8.9 280 / 161008.3 2.4 2.5 3.6
2016-Sep-27 01:00N 72°48' W 076°54'2211.1 300 / 221006.9 2.7 2.8 3.6
2016-Sep-26 23:00N 72°42' W 075°42'1110.7 260 / 111008.0 3.2 3.2 2.5
2016-Sep-26 22:00N 72°42' W 075°06'3210.7 250 / 171007.5 3.7 3.7 2.9
2016-Sep-26 19:00N 72°42' W 073°18'1110.8 160 / 51009.3 2.1 2.1 3.5
2016-Sep-26 18:00N 72°36' W 072°48'2713.4 180 / 71009.5 1.7 1.7 3.5
2016-Sep-26 16:00N 72°18' W 071°42'2713.5 150 / 131010.1 1.7 1.7 3.0
2016-Sep-26 14:00N 72°00' W 070°36'2713.7 150 / 161010.9 2.2 2.2 3.8
2016-Sep-26 12:00N 71°42' W 069°30'1312.8 150 / 171011.8 1.7 1.7 4.1
2016-Sep-26 11:00N 71°36' W 068°54'1716.6 160 / 201012.5 2.0 2.0 3.0
2016-Sep-26 10:00N 71°24' W 068°18'10 9.7 160 / 171013.6 2.1 2.1 4.7
2016-Sep-26 09:00N 71°18' W 067°54'18 9.0 160 / 191013.6 2.0 2.0 4.5
2016-Sep-26 07:00N 71°06' W 067°12'8 8.4 160 / 161014.5 1.9 1.9 4.3
2016-Sep-26 06:00N 71°00' W 066°54'8 8.4 170 / 141014.6 2.1 2.0 5.2
2016-Sep-26 05:00N 70°54' W 066°36'8 8.4 170 / 151015.0 2.1 1.6 5.5
2016-Sep-26 04:00N 70°48' W 066°18'13 6.6 170 / 91015.3 2.2 1.8 5.4
2016-Sep-26 02:00N 70°42' W 065°42'3411.3 170 / 71015.9 2.5 0.5 5.5
2016-Sep-25 23:00N 70°18' W 064°30'1615.7 100 / 91015.4 2.8 0.3 5.2
2016-Sep-25 22:00N 70°06' W 064°00'4414.6 070 / 91015.3 2.8 0.1 5.3
2016-Sep-25 19:00N 69°30' W 062°48'1413.6 020 / 151012.9 2.4 1.5 5.6
2016-Sep-25 18:00N 69°18' W 062°30'8113.5 030 / 151012.2 2.4 1.2 5.0
2016-Sep-25 12:00N 68°06' W 060°48'6613.2 300 / 101012.3 2.9 2.8 4.4
2016-Sep-25 07:00N 67°06' W 059°36'1312.9 330 / 131015.6 1.5 1.3 4.7
2016-Sep-25 06:00N 66°54' W 059°24'8 7.6 340 / 141016.0 1.2 1.2 4.7
2016-Sep-25 05:00N 66°48' W 059°12'19 9.7 330 / 181016.4 1.3 1.3 4.5
2016-Sep-25 03:00N 66°30' W 058°54'24 8.0 350 / 181016.9 1.1 1.1 4.3
2016-Sep-25 00:00N 66°06' W 058°48'1212.0 340 / 211017.3 1.6 1.6 4.0
2016-Sep-24 23:00N 65°54' W 058°48'1818.0 350 / 231017.2 1.6 1.6 4.2
2016-Sep-24 22:00N 65°36' W 058°48'1313.0 360 / 231017.2 1.6 1.6 3.8
2016-Sep-24 21:00N 65°24' W 058°36'1212.3 010 / 231017.0 2.1 2.1 4.4
2016-Sep-24 20:00N 65°12' W 058°30'1818.0 010 / 211016.5 2.3 2.2 5.5
2016-Sep-24 19:00N 64°54' W 058°30'7 6.5 020 / 251015.9 2.7 2.5 6.2
2016-Sep-24 18:00N 64°48' W 058°24'3015.2 020 / 241015.1 3.4 3.1 6.5
2016-Sep-24 16:00N 64°18' W 058°12'1212.0 030 / 231014.5 4.2 4.2 6.5
2016-Sep-24 15:00N 64°06' W 058°12'5513.6 030 / 221013.9 4.5 4.4 6.5
2016-Sep-24 11:00N 63°12' W 057°54'1818.2 040 / 181012.0 4.0 4.0 7.7
2016-Sep-24 10:00N 62°54' W 057°48'1212.3 030 / 161011.5 4.1 4.2 8.0
2016-Sep-24 09:00N 62°42' W 057°42'1212.0 040 / 161011.2 4.4 4.4 7.7
2016-Sep-24 08:00N 62°30' W 057°42'18 9.1 040 / 161010.9 4.9 4.8 7.8
2016-Sep-24 06:00N 62°12' W 057°36'1212.3 030 / 131010.5 4.8 4.9 8.0
2016-Sep-24 05:00N 62°00' W 057°30'6 6.0 030 / 111010.5 4.9 5.0 8.0
2016-Sep-24 04:00N 61°54' W 057°30'2412.1 040 / 91010.3 5.2 5.4 8.1
2016-Sep-24 02:00N 61°30' W 057°24'1212.3 050 / 81010.0 6.1 6.2 8.3
2016-Sep-24 01:00N 61°18' W 057°18'1212.0 050 / 91009.9 5.8 5.9 8.6
2016-Sep-24 00:00N 61°06' W 057°18'7314.6 030 / 81009.9 5.9 6.1 8.6
2016-Sep-23 19:00N 59°54' W 056°54'3015.1 080 / 91009.9 4.8 5.0 8.1
2016-Sep-23 17:00N 59°24' W 056°48'6713.3 180 / 51009.8 6.8 6.9 8.3
2016-Sep-23 12:00N 58°18' W 056°30'6713.3 230 / 131010.7 6.3 6.4 7.8
2016-Sep-23 07:00N 57°12' W 056°12'1212.0 240 / 91011.2 6.9 7.0 8.8
2016-Sep-23 06:00N 57°00' W 056°12'7 6.8 230 / 121011.3 6.8 6.9 8.7
2016-Sep-23 05:00N 56°54' W 056°06'2412.0 230 / 121011.5 6.8 6.8 8.6
2016-Sep-23 03:00N 56°30' W 056°06'7 6.9 220 / 81011.8 6.7 6.7 8.5
2016-Sep-23 02:00N 56°24' W 056°00'1818.3 170 / 41012.0 6.9 6.9 8.9
2016-Sep-23 01:00N 56°06' W 055°54'1212.0 090 / 41012.0 7.1 6.8 8.4
2016-Sep-23 00:00N 55°54' W 055°54'3015.1 090 / 81012.1 7.3 6.0 9.1
2016-Sep-22 22:00N 55°24' W 055°48'1212.5 300 / 21011.4 5.9 6.0 5.8
2016-Sep-22 21:00N 55°12' W 055°42'1212.0 080 / 71010.7 5.3 5.5 5.4
2016-Sep-22 20:00N 55°00' W 055°42'1212.5 070 / 101009.8 5.2 5.3 5.1
2016-Sep-22 19:00N 54°48' W 055°36'1818.0 050 / 121008.7 4.9 5.0 4.8
2016-Sep-22 18:00N 54°30' W 055°36'1212.5 050 / 111008.2 4.9 5.0 4.8
2016-Sep-22 17:00N 54°18' W 055°30'1212.0 050 / 131007.2 4.5 4.6 4.7
2016-Sep-22 16:00N 54°06' W 055°30'3015.1 060 / 121006.4 4.5 4.6 5.0
2016-Sep-22 14:00N 53°36' W 055°24'4214.1 070 / 161004.5 4.8 4.9 5.1
2016-Sep-22 11:00N 52°54' W 055°18'6 6.0 070 / 111001.6 6.0 6.1 7.4
2016-Sep-22 10:00N 52°48' W 055°18'1212.0 350 / 61001.1 8.2 8.4 5.9
2016-Sep-22 09:00N 52°36' W 055°18'3010.1 300 / 101000.8 9.3 9.4 8.0
2016-Sep-22 06:00N 52°06' W 055°24'1414.1 250 / 61000.6 10.110.2 8.2
2016-Sep-22 05:00N 51°54' W 055°36'1312.6 270 / 71000.7 9.5 9.6 8.0
2016-Sep-22 04:00N 51°48' W 055°54'1616.4 250 / 111001.0 7.9 8.0 8.0
2016-Sep-22 03:00N 51°36' W 056°12'5714.3 240 / 121001.5 8.8 8.9 8.0
2016-Sep-21 23:00N 51°06' W 057°30'1414.2 240 / 151003.7 11.711.913.4
2016-Sep-21 22:00N 50°54' W 057°42'2613.1 240 / 181004.0 11.211.312.7
2016-Sep-21 20:00N 50°36' W 058°12'1716.6 240 / 211004.7 10.510.712.3
2016-Sep-21 19:00N 50°24' W 058°30'2814.2 240 / 211005.1 10.610.812.3
2016-Sep-21 17:00N 50°00' W 058°54'2813.8 260 / 191006.2 10.110.211.4
2016-Sep-21 15:00N 49°54' W 059°36'3115.5 260 / 191006.9 11.411.511.2
2016-Sep-21 13:00N 49°54' W 060°24'1211.6 270 / 211007.1 11.611.711.0
2016-Sep-21 12:00N 49°54' W 060°42'1515.5 250 / 201007.2 12.212.310.5
2016-Sep-21 11:00N 49°54' W 061°06'1211.6 240 / 211007.4 12.212.210.6
2016-Sep-21 10:00N 49°54' W 061°24'1515.5 230 / 161007.3 12.012.111.7
2016-Sep-21 09:00N 49°54' W 061°48'1211.6 220 / 121007.6 11.812.012.1
2016-Sep-21 08:00N 49°54' W 062°06'4314.2 270 / 121008.0 11.711.811.7
2016-Sep-21 05:00N 49°54' W 063°12'1515.5 260 / 181008.7 13.013.112.2
2016-Sep-21 04:00N 49°54' W 063°36'4314.2 230 / 131008.7 11.812.011.1
2016-Sep-21 01:00N 49°54' W 064°42'3014.8 230 / 31010.9 11.912.010.8
2016-Sep-20 23:00N 49°42' W 065°24'4615.5 280 / 91010.7 11.311.411.0
2016-Sep-20 20:00N 49°24' W 066°30'   320 / 41011.5 10.510.711.4

Dump ship's entire track history